sensor_id;sensor_type;location;lat;lon;timestamp;pressure;altitude;pressure_sealevel;temperature;humidity
50057;BME280;36875;49.468;11.200;2022-09-16T00:00:43;97327.88;;;19.49;62.49
50057;BME280;36875;49.468;11.200;2022-09-16T00:03:09;97319.69;;;19.49;62.24
50057;BME280;36875;49.468;11.200;2022-09-16T00:05:39;97321.63;;;19.49;62.59
50057;BME280;36875;49.468;11.200;2022-09-16T00:08:05;97323.53;;;19.48;62.21
50057;BME280;36875;49.468;11.200;2022-09-16T00:10:31;97326.25;;;19.48;62.11
50057;BME280;36875;49.468;11.200;2022-09-16T00:12:58;97322.75;;;19.48;62.48
50057;BME280;36875;49.468;11.200;2022-09-16T00:15:23;97315.34;;;19.48;62.65
50057;BME280;36875;49.468;11.200;2022-09-16T00:17:49;97315.69;;;19.47;62.45
50057;BME280;36875;49.468;11.200;2022-09-16T00:20:14;97321.94;;;19.47;62.30
50057;BME280;36875;49.468;11.200;2022-09-16T00:22:40;97314.56;;;19.48;62.49
50057;BME280;36875;49.468;11.200;2022-09-16T00:25:06;97314.56;;;19.48;62.52
50057;BME280;36875;49.468;11.200;2022-09-16T00:27:32;97304.94;;;19.41;62.61
50057;BME280;36875;49.468;11.200;2022-09-16T00:29:59;97310.25;;;19.47;62.36
50057;BME280;36875;49.468;11.200;2022-09-16T00:32:24;97307.50;;;19.47;62.23
50057;BME280;36875;49.468;11.200;2022-09-16T00:34:50;97307.50;;;19.47;62.67
50057;BME280;36875;49.468;11.200;2022-09-16T00:37:16;97297.06;;;19.40;62.38
50057;BME280;36875;49.468;11.200;2022-09-16T00:39:42;97306.69;;;19.46;62.45
50057;BME280;36875;49.468;11.200;2022-09-16T00:42:10;97300.44;;;19.45;62.08
50057;BME280;36875;49.468;11.200;2022-09-16T00:44:55;97300.75;;;19.44;62.09
50057;BME280;36875;49.468;11.200;2022-09-16T00:47:25;97306.69;;;19.46;62.48
50057;BME280;36875;49.468;11.200;2022-09-16T00:49:55;97307.00;;;19.44;62.36
50057;BME280;36875;49.468;11.200;2022-09-16T00:52:21;97299.97;;;19.43;62.08
50057;BME280;36875;49.468;11.200;2022-09-16T00:54:47;97305.41;;;19.43;62.34
50057;BME280;36875;49.468;11.200;2022-09-16T00:57:13;97299.97;;;19.43;62.11
50057;BME280;36875;49.468;11.200;2022-09-16T00:59:43;97281.66;;;19.35;62.31
50057;BME280;36875;49.468;11.200;2022-09-16T01:02:12;97297.22;;;19.43;62.20
50057;BME280;36875;49.468;11.200;2022-09-16T01:04:44;97299.97;;;19.43;62.19
50057;BME280;36875;49.468;11.200;2022-09-16T01:07:10;97299.16;;;19.43;62.26
50057;BME280;36875;49.468;11.200;2022-09-16T01:09:37;97277.19;;;19.31;62.06
50057;BME280;36875;49.468;11.200;2022-09-16T01:12:03;97301.06;;;19.42;62.22
50057;BME280;36875;49.468;11.200;2022-09-16T01:14:29;97282.31;;;19.32;61.98
50057;BME280;36875;49.468;11.200;2022-09-16T01:17:16;97296.59;;;19.38;62.04
50057;BME280;36875;49.468;11.200;2022-09-16T01:20:02;97292.88;;;19.42;62.11
50057;BME280;36875;49.468;11.200;2022-09-16T01:22:45;97288.88;;;19.40;62.18
50057;BME280;36875;49.468;11.200;2022-09-16T01:25:25;97299.47;;;19.41;62.28
50057;BME280;36875;49.468;11.200;2022-09-16T01:28:31;97294.03;;;19.41;62.38
50057;BME280;36875;49.468;11.200;2022-09-16T01:31:08;97298.69;;;19.41;62.13
50057;BME280;36875;49.468;11.200;2022-09-16T01:33:41;97301.41;;;19.41;61.96
50057;BME280;36875;49.468;11.200;2022-09-16T01:39:07;97307.66;;;19.41;62.15
50057;BME280;36875;49.468;11.200;2022-09-16T01:41:44;97304.94;;;19.41;62.31
50057;BME280;36875;49.468;11.200;2022-09-16T01:44:18;97284.56;;;19.30;62.06
50057;BME280;36875;49.468;11.200;2022-09-16T01:46:49;97302.06;;;19.38;62.06
50057;BME280;36875;49.468;11.200;2022-09-16T01:49:22;97299.00;;;19.39;62.36
50057;BME280;36875;49.468;11.200;2022-09-16T01:51:55;97304.47;;;19.39;62.30
50057;BME280;36875;49.468;11.200;2022-09-16T01:54:31;97290.19;;;19.34;62.09
50057;BME280;36875;49.468;11.200;2022-09-16T01:57:01;97296.28;;;19.39;62.21
50057;BME280;36875;49.468;11.200;2022-09-16T01:59:34;97304.47;;;19.39;62.09
50057;BME280;36875;49.468;11.200;2022-09-16T02:02:05;97300.13;;;19.38;61.99
50057;BME280;36875;49.468;11.200;2022-09-16T02:04:36;97296.59;;;19.38;62.00
50057;BME280;36875;49.468;11.200;2022-09-16T02:07:06;97293.88;;;19.38;62.25
50057;BME280;36875;49.468;11.200;2022-09-16T02:09:38;97278.28;;;19.30;61.92
50057;BME280;36875;49.468;11.200;2022-09-16T02:12:08;97287.63;;;19.37;62.00
50057;BME280;36875;49.468;11.200;2022-09-16T02:14:37;97297.38;;;19.38;62.23
50057;BME280;36875;49.468;11.200;2022-09-16T02:17:09;97300.13;;;19.38;62.05
50057;BME280;36875;49.468;11.200;2022-09-16T02:19:38;97268.03;;;19.18;62.12
50057;BME280;36875;49.468;11.200;2022-09-16T02:22:09;97298.53;;;19.37;62.07
50057;BME280;36875;49.468;11.200;2022-09-16T02:24:37;97296.91;;;19.36;61.81
50057;BME280;36875;49.468;11.200;2022-09-16T02:27:08;97305.09;;;19.36;61.84
50057;BME280;36875;49.468;11.200;2022-09-16T02:29:38;97292.28;;;19.28;61.86
50057;BME280;36875;49.468;11.200;2022-09-16T02:32:08;97305.09;;;19.36;62.12
50057;BME280;36875;49.468;11.200;2022-09-16T02:34:37;97302.38;;;19.36;62.13
50057;BME280;36875;49.468;11.200;2022-09-16T02:37:07;97298.84;;;19.36;61.88
50057;BME280;36875;49.468;11.200;2022-09-16T02:39:36;97278.94;;;19.26;62.13
50057;BME280;36875;49.468;11.200;2022-09-16T02:42:03;97298.84;;;19.36;61.85
50057;BME280;36875;49.468;11.200;2022-09-16T02:44:29;97299.94;;;19.35;61.88
50057;BME280;36875;49.468;11.200;2022-09-16T02:46:59;97302.69;;;19.35;61.60
50057;BME280;36875;49.468;11.200;2022-09-16T02:49:31;97301.88;;;19.34;61.92
50057;BME280;36875;49.468;11.200;2022-09-16T02:52:07;97302.69;;;19.35;62.20
50057;BME280;36875;49.468;11.200;2022-09-16T02:54:38;97299.16;;;19.34;61.90
50057;BME280;36875;49.468;11.200;2022-09-16T02:57:08;97297.22;;;19.35;61.98
50057;BME280;36875;49.468;11.200;2022-09-16T02:59:34;97301.09;;;19.34;61.70
50057;BME280;36875;49.468;11.200;2022-09-16T03:02:00;97297.06;;;19.31;61.78
50057;BME280;36875;49.468;11.200;2022-09-16T03:04:27;97289.88;;;19.26;61.68
50057;BME280;36875;49.468;11.200;2022-09-16T03:06:53;97303.00;;;19.33;62.06
50057;BME280;36875;49.468;11.200;2022-09-16T03:09:18;97297.53;;;19.33;61.95
50057;BME280;36875;49.468;11.200;2022-09-16T03:12:18;97299.78;;;19.31;61.44
50057;BME280;36875;49.468;11.200;2022-09-16T03:15:05;97297.53;;;19.33;61.64
50057;BME280;36875;49.468;11.200;2022-09-16T03:17:49;97297.88;;;19.32;61.69
50057;BME280;36875;49.468;11.200;2022-09-16T03:20:20;97304.13;;;19.32;61.92
50057;BME280;36875;49.468;11.200;2022-09-16T03:22:51;97298.69;;;19.32;61.75
50057;BME280;36875;49.468;11.200;2022-09-16T03:25:31;97301.41;;;19.32;61.79
50057;BME280;36875;49.468;11.200;2022-09-16T03:28:02;97297.06;;;19.31;61.86
50057;BME280;36875;49.468;11.200;2022-09-16T03:30:36;97295.13;;;19.32;61.88
50057;BME280;36875;49.468;11.200;2022-09-16T03:33:05;97298.69;;;19.32;61.65
50057;BME280;36875;49.468;11.200;2022-09-16T03:35:39;97286.00;;;19.27;61.71
50057;BME280;36875;49.468;11.200;2022-09-16T03:38:07;97297.06;;;19.31;61.85
50057;BME280;36875;49.468;11.200;2022-09-16T03:40:35;97291.59;;;19.31;61.44
50057;BME280;36875;49.468;11.200;2022-09-16T03:43:09;97294.34;;;19.31;61.72
50057;BME280;36875;49.468;11.200;2022-09-16T03:45:35;97296.28;;;19.31;61.64
50057;BME280;36875;49.468;11.200;2022-09-16T03:48:01;97277.00;;;19.27;61.89
50057;BME280;36875;49.468;11.200;2022-09-16T03:50:26;97293.53;;;19.31;61.59
50057;BME280;36875;49.468;11.200;2022-09-16T03:52:53;97289.19;;;19.30;61.95
50057;BME280;36875;49.468;11.200;2022-09-16T03:55:19;97287.28;;;19.30;61.31
50057;BME280;36875;49.468;11.200;2022-09-16T03:57:44;97288.41;;;19.29;61.87
50057;BME280;36875;49.468;11.200;2022-09-16T04:00:10;97282.16;;;19.29;61.59
50057;BME280;36875;49.468;11.200;2022-09-16T04:02:36;97284.88;;;19.29;61.61
50057;BME280;36875;49.468;11.200;2022-09-16T04:05:02;97277.50;;;19.29;61.62
50057;BME280;36875;49.468;11.200;2022-09-16T04:07:28;97281.34;;;19.28;61.67
50057;BME280;36875;49.468;11.200;2022-09-16T04:09:57;97284.09;;;19.28;61.63
50057;BME280;36875;49.468;11.200;2022-09-16T04:12:23;97277.50;;;19.29;61.66
50057;BME280;36875;49.468;11.200;2022-09-16T04:14:48;97275.91;;;19.28;61.37
50057;BME280;36875;49.468;11.200;2022-09-16T04:17:15;97285.69;;;19.29;61.68
50057;BME280;36875;49.468;11.200;2022-09-16T04:19:40;97283.25;;;19.27;61.65
50057;BME280;36875;49.468;11.200;2022-09-16T04:22:06;97279.75;;;19.27;61.54
50057;BME280;36875;49.468;11.200;2022-09-16T04:24:31;97280.53;;;19.27;61.46
50057;BME280;36875;49.468;11.200;2022-09-16T04:26:58;97279.75;;;19.27;61.60
50057;BME280;36875;49.468;11.200;2022-09-16T04:29:24;97273.50;;;19.26;61.79
50057;BME280;36875;49.468;11.200;2022-09-16T04:31:49;97253.44;;;19.14;61.64
50057;BME280;36875;49.468;11.200;2022-09-16T04:34:15;97282.47;;;19.27;61.36
50057;BME280;36875;49.468;11.200;2022-09-16T04:36:41;97274.59;;;19.25;61.48
50057;BME280;36875;49.468;11.200;2022-09-16T04:39:06;97269.94;;;19.26;61.41
50057;BME280;36875;49.468;11.200;2022-09-16T04:41:32;97268.34;;;19.25;61.49
50057;BME280;36875;49.468;11.200;2022-09-16T04:43:59;97265.63;;;19.25;61.61
50057;BME280;36875;49.468;11.200;2022-09-16T04:46:26;97266.75;;;19.24;61.72
50057;BME280;36875;49.468;11.200;2022-09-16T04:48:54;97262.91;;;19.25;61.78
50057;BME280;36875;49.468;11.200;2022-09-16T04:51:20;97260.16;;;19.25;61.62
50057;BME280;36875;49.468;11.200;2022-09-16T04:53:52;97256.16;;;19.14;61.38
50057;BME280;36875;49.468;11.200;2022-09-16T04:56:20;97277.34;;;19.25;61.36
50057;BME280;36875;49.468;11.200;2022-09-16T04:58:47;97256.66;;;19.24;61.49
50057;BME280;36875;49.468;11.200;2022-09-16T05:01:16;97262.91;;;19.25;61.67
50057;BME280;36875;49.468;11.200;2022-09-16T05:03:44;97244.91;;;19.24;61.75
50057;BME280;36875;49.468;11.200;2022-09-16T05:06:12;97242.19;;;19.24;61.25
50057;BME280;36875;49.468;11.200;2022-09-16T05:08:38;97253.44;;;19.14;61.58
50057;BME280;36875;49.468;11.200;2022-09-16T05:11:06;97269.47;;;19.24;61.43
50057;BME280;36875;49.468;11.200;2022-09-16T05:13:32;97264.00;;;19.24;61.43
50057;BME280;36875;49.468;11.200;2022-09-16T05:16:03;97245.59;;;19.21;61.54
50057;BME280;36875;49.468;11.200;2022-09-16T05:18:31;97256.31;;;19.17;61.43
50057;BME280;36875;49.468;11.200;2022-09-16T05:20:57;97266.75;;;19.24;61.70
50057;BME280;36875;49.468;11.200;2022-09-16T05:23:23;97273.34;;;19.23;61.60
50057;BME280;36875;49.468;11.200;2022-09-16T05:25:49;97286.66;;;19.24;61.90
50057;BME280;36875;49.468;11.200;2022-09-16T05:28:14;97274.91;;;19.24;61.53
50057;BME280;36875;49.468;11.200;2022-09-16T05:30:40;97272.06;;;19.12;61.55
50057;BME280;36875;49.468;11.200;2022-09-16T05:33:05;97289.69;;;19.23;61.67
50057;BME280;36875;49.468;11.200;2022-09-16T05:35:32;97275.09;;;19.10;61.67
50057;BME280;36875;49.468;11.200;2022-09-16T05:37:58;97299.00;;;19.22;61.54
50057;BME280;36875;49.468;11.200;2022-09-16T05:40:23;97276.06;;;19.14;61.58
50057;BME280;36875;49.468;11.200;2022-09-16T05:42:51;97291.94;;;19.21;61.47
50057;BME280;36875;49.468;11.200;2022-09-16T05:45:17;97291.13;;;19.20;61.21
50057;BME280;36875;49.468;11.200;2022-09-16T05:47:46;97272.38;;;19.10;61.08
50057;BME280;36875;49.468;11.200;2022-09-16T05:50:12;97277.50;;;19.12;60.51
50057;BME280;36875;49.468;11.200;2022-09-16T05:52:39;97300.44;;;19.19;60.93
50057;BME280;36875;49.468;11.200;2022-09-16T05:55:05;97295.31;;;19.18;60.58
50057;BME280;36875;49.468;11.200;2022-09-16T05:57:31;97305.13;;;19.19;60.90
50057;BME280;36875;49.468;11.200;2022-09-16T05:59:56;97295.63;;;19.16;61.12
50057;BME280;36875;49.468;11.200;2022-09-16T06:02:22;97306.69;;;19.20;60.91
50057;BME280;36875;49.468;11.200;2022-09-16T06:04:48;97306.69;;;19.20;61.17
50057;BME280;36875;49.468;11.200;2022-09-16T06:07:13;97305.91;;;19.19;60.92
50057;BME280;36875;49.468;11.200;2022-09-16T06:09:40;97301.25;;;19.20;60.78
50057;BME280;36875;49.468;11.200;2022-09-16T06:12:06;97303.97;;;19.20;61.13
50057;BME280;36875;49.468;11.200;2022-09-16T06:14:31;97309.44;;;19.20;60.82
50057;BME280;36875;49.468;11.200;2022-09-16T06:16:57;97308.31;;;19.21;61.25
50057;BME280;36875;49.468;11.200;2022-09-16T06:19:23;97314.25;;;19.23;61.19
50057;BME280;36875;49.468;11.200;2022-09-16T06:21:48;97303.34;;;19.23;61.56
50057;BME280;36875;49.468;11.200;2022-09-16T06:24:16;97295.78;;;19.20;61.58
50057;BME280;36875;49.468;11.200;2022-09-16T06:26:44;97298.84;;;19.27;61.64
50057;BME280;36875;49.468;11.200;2022-09-16T06:29:10;97303.19;;;19.28;61.56
50057;BME280;36875;49.468;11.200;2022-09-16T06:31:37;97295.16;;;19.23;61.42
50057;BME280;36875;49.468;11.200;2022-09-16T06:34:03;97289.69;;;19.23;61.31
50057;BME280;36875;49.468;11.200;2022-09-16T06:36:31;97300.78;;;19.26;61.66
50057;BME280;36875;49.468;11.200;2022-09-16T06:38:57;97297.56;;;19.24;61.39
50057;BME280;36875;49.468;11.200;2022-09-16T06:41:22;97283.91;;;19.16;61.55
50057;BME280;36875;49.468;11.200;2022-09-16T06:43:50;97284.72;;;19.16;61.23
50057;BME280;36875;49.468;11.200;2022-09-16T06:46:18;97289.69;;;19.23;61.21
50057;BME280;36875;49.468;11.200;2022-09-16T06:48:45;97286.50;;;19.21;60.94
50057;BME280;36875;49.468;11.200;2022-09-16T06:51:13;97288.41;;;19.20;60.54
50057;BME280;36875;49.468;11.200;2022-09-16T06:53:40;97289.53;;;19.19;59.91
50057;BME280;36875;49.468;11.200;2022-09-16T06:56:09;97286.97;;;19.14;59.97
50057;BME280;36875;49.468;11.200;2022-09-16T06:58:39;97290.66;;;19.18;59.62
50057;BME280;36875;49.468;11.200;2022-09-16T07:01:09;97290.16;;;19.16;59.76
50057;BME280;36875;49.468;11.200;2022-09-16T07:03:36;97292.59;;;19.18;59.90
50057;BME280;36875;49.468;11.200;2022-09-16T07:06:03;97295.31;;;19.18;59.66
50057;BME280;36875;49.468;11.200;2022-09-16T07:08:29;97299.66;;;19.19;59.83
50057;BME280;36875;49.468;11.200;2022-09-16T07:10:57;97299.66;;;19.19;59.82
50057;BME280;36875;49.468;11.200;2022-09-16T07:13:24;97299.66;;;19.19;59.94
50057;BME280;36875;49.468;11.200;2022-09-16T07:15:49;97304.28;;;19.18;59.84
50057;BME280;36875;49.468;11.200;2022-09-16T07:18:17;97287.44;;;19.07;60.12
50057;BME280;36875;49.468;11.200;2022-09-16T07:20:42;97308.94;;;19.18;60.17
50057;BME280;36875;49.468;11.200;2022-09-16T07:23:08;97302.69;;;19.17;59.85
50057;BME280;36875;49.468;11.200;2022-09-16T07:25:33;97304.13;;;19.15;60.08
50057;BME280;36875;49.468;11.200;2022-09-16T07:27:59;97300.75;;;19.18;60.04
50057;BME280;36875;49.468;11.200;2022-09-16T07:30:25;97299.97;;;19.17;60.07
50057;BME280;36875;49.468;11.200;2022-09-16T07:32:52;97298.03;;;19.18;60.27
50057;BME280;36875;49.468;11.200;2022-09-16T07:35:19;97301.56;;;19.18;60.07
50057;BME280;36875;49.468;11.200;2022-09-16T07:37:45;97307.00;;;19.18;60.22
50057;BME280;36875;49.468;11.200;2022-09-16T07:40:10;97283.59;;;19.09;60.10
50057;BME280;36875;49.468;11.200;2022-09-16T07:42:37;97299.31;;;19.20;60.07
50057;BME280;36875;49.468;11.200;2022-09-16T07:45:03;97299.31;;;19.20;60.38
50057;BME280;36875;49.468;11.200;2022-09-16T07:47:29;97299.00;;;19.22;60.23
50057;BME280;36875;49.468;11.200;2022-09-16T07:49:54;97302.88;;;19.21;60.12
50057;BME280;36875;49.468;11.200;2022-09-16T07:52:22;97275.88;;;19.11;60.34
50057;BME280;36875;49.468;11.200;2022-09-16T07:54:53;97292.41;;;19.14;60.46
50057;BME280;36875;49.468;11.200;2022-09-16T07:57:19;97295.78;;;19.20;60.07
50057;BME280;36875;49.468;11.200;2022-09-16T07:59:46;97296.25;;;19.22;60.40
50057;BME280;36875;49.468;11.200;2022-09-16T08:02:11;97306.06;;;19.23;60.29
50057;BME280;36875;49.468;11.200;2022-09-16T08:04:37;97299.78;;;19.22;60.36
50057;BME280;36875;49.468;11.200;2022-09-16T08:07:02;97303.34;;;19.23;60.57
50057;BME280;36875;49.468;11.200;2022-09-16T08:09:29;97307.97;;;19.22;60.61
50057;BME280;36875;49.468;11.200;2022-09-16T08:11:55;97297.06;;;19.22;60.92
50057;BME280;36875;49.468;11.200;2022-09-16T08:14:20;97294.34;;;19.22;60.38
50057;BME280;36875;49.468;11.200;2022-09-16T08:16:47;97304.44;;;19.22;60.62
50057;BME280;36875;49.468;11.200;2022-09-16T08:19:15;97301.72;;;19.22;60.63
50057;BME280;36875;49.468;11.200;2022-09-16T08:21:41;97301.41;;;19.23;60.70
50057;BME280;36875;49.468;11.200;2022-09-16T08:24:08;97301.41;;;19.23;60.76
50057;BME280;36875;49.468;11.200;2022-09-16T08:26:35;97303.00;;;19.16;60.66
50057;BME280;36875;49.468;11.200;2022-09-16T08:29:01;97309.28;;;19.25;60.81
50057;BME280;36875;49.468;11.200;2022-09-16T08:31:27;97312.31;;;19.23;60.84
50057;BME280;36875;49.468;11.200;2022-09-16T08:33:53;97301.41;;;19.23;60.58
50057;BME280;36875;49.468;11.200;2022-09-16T08:36:20;97311.53;;;19.23;60.49
50057;BME280;36875;49.468;11.200;2022-09-16T08:38:47;97305.91;;;19.19;60.55
50057;BME280;36875;49.468;11.200;2022-09-16T08:41:34;97313.44;;;19.22;60.49
50057;BME280;36875;49.468;11.200;2022-09-16T08:44:12;97314.56;;;19.21;60.43
50057;BME280;36875;49.468;11.200;2022-09-16T08:46:46;97318.41;;;19.20;60.51
50057;BME280;36875;49.468;11.200;2022-09-16T08:49:18;97316.81;;;19.19;60.10
50057;BME280;36875;49.468;11.200;2022-09-16T08:51:45;97324.69;;;19.21;60.24
50057;BME280;36875;49.468;11.200;2022-09-16T08:54:17;97298.34;;;19.07;59.92
50057;BME280;36875;49.468;11.200;2022-09-16T08:56:48;97320.34;;;19.20;59.91
50057;BME280;36875;49.468;11.200;2022-09-16T08:59:20;97319.53;;;19.19;59.46
50057;BME280;36875;49.468;11.200;2022-09-16T09:01:49;97310.06;;;19.17;59.64
50057;BME280;36875;49.468;11.200;2022-09-16T09:04:17;97314.25;;;19.14;59.78
50057;BME280;36875;49.468;11.200;2022-09-16T09:06:53;97317.13;;;19.18;59.41
50057;BME280;36875;49.468;11.200;2022-09-16T09:09:35;97310.88;;;19.17;59.23
50057;BME280;36875;49.468;11.200;2022-09-16T09:12:08;97310.41;;;19.15;58.91
50057;BME280;36875;49.468;11.200;2022-09-16T09:14:43;97309.25;;;19.16;58.60
50057;BME280;36875;49.468;11.200;2022-09-16T09:17:21;97315.50;;;19.17;58.23
50057;BME280;36875;49.468;11.200;2022-09-16T09:19:59;97313.91;;;19.16;58.27
50057;BME280;36875;49.468;11.200;2022-09-16T09:22:43;97308.31;;;19.12;58.46
50057;BME280;36875;49.468;11.200;2022-09-16T09:25:22;97318.25;;;19.17;58.65
50057;BME280;36875;49.468;11.200;2022-09-16T09:27:59;97319.84;;;19.18;58.56
50057;BME280;36875;49.468;11.200;2022-09-16T09:30:32;97319.84;;;19.18;58.61
50057;BME280;36875;49.468;11.200;2022-09-16T09:33:13;97324.53;;;19.17;58.65
50057;BME280;36875;49.468;11.200;2022-09-16T09:36:10;97318.25;;;19.17;58.61
50057;BME280;36875;49.468;11.200;2022-09-16T09:41:35;97312.94;;;19.20;58.54
50057;BME280;36875;49.468;11.200;2022-09-16T09:44:20;97320.03;;;19.21;58.47
50057;BME280;36875;49.468;11.200;2022-09-16T09:46:56;97319.22;;;19.21;58.11
50057;BME280;36875;49.468;11.200;2022-09-16T09:49:26;97317.59;;;19.20;58.29
50057;BME280;36875;49.468;11.200;2022-09-16T09:51:57;97321.47;;;19.19;58.29
50057;BME280;36875;49.468;11.200;2022-09-16T09:54:26;97315.19;;;19.18;58.27
50057;BME280;36875;49.468;11.200;2022-09-16T09:56:57;97314.41;;;19.18;58.50
50057;BME280;36875;49.468;11.200;2022-09-16T09:59:28;97299.16;;;19.17;58.19
50057;BME280;36875;49.468;11.200;2022-09-16T10:01:57;97304.94;;;19.15;57.60
50057;BME280;36875;49.468;11.200;2022-09-16T10:04:23;97312.78;;;19.17;57.98
50057;BME280;36875;49.468;11.200;2022-09-16T10:06:51;97294.34;;;19.05;57.38
50057;BME280;36875;49.468;11.200;2022-09-16T10:09:18;97294.34;;;19.05;57.64
50057;BME280;36875;49.468;11.200;2022-09-16T10:11:47;97303.00;;;19.16;57.59
50057;BME280;36875;49.468;11.200;2022-09-16T10:14:22;97309.25;;;19.16;57.29
50057;BME280;36875;49.468;11.200;2022-09-16T10:16:49;97305.75;;;19.16;57.40
50057;BME280;36875;49.468;11.200;2022-09-16T10:19:18;97283.25;;;19.01;57.33
50057;BME280;36875;49.468;11.200;2022-09-16T10:21:47;97303.00;;;19.16;56.62
50057;BME280;36875;49.468;11.200;2022-09-16T10:24:27;97304.94;;;19.15;56.92
50057;BME280;36875;49.468;11.200;2022-09-16T10:26:53;97301.06;;;19.16;56.38
50057;BME280;36875;49.468;11.200;2022-09-16T10:29:19;97304.94;;;19.15;56.63
50057;BME280;36875;49.468;11.200;2022-09-16T10:31:44;97294.84;;;19.16;56.94
50057;BME280;36875;49.468;11.200;2022-09-16T10:34:16;97294.03;;;19.15;56.62
50057;BME280;36875;49.468;11.200;2022-09-16T10:36:44;97300.28;;;19.16;56.54
50057;BME280;36875;49.468;11.200;2022-09-16T10:39:21;97278.44;;;19.07;56.48
50057;BME280;36875;49.468;11.200;2022-09-16T10:41:48;97288.59;;;19.15;56.26
50057;BME280;36875;49.468;11.200;2022-09-16T10:44:17;97281.50;;;19.14;56.70
50057;BME280;36875;49.468;11.200;2022-09-16T10:46:50;97290.97;;;19.17;56.06
50057;BME280;36875;49.468;11.200;2022-09-16T10:49:20;97289.38;;;19.16;56.00
50057;BME280;36875;49.468;11.200;2022-09-16T10:51:48;97279.56;;;19.15;55.60
50057;BME280;36875;49.468;11.200;2022-09-16T10:54:23;97287.75;;;19.15;55.91
50057;BME280;36875;49.468;11.200;2022-09-16T10:56:50;97285.03;;;19.15;55.74
50057;BME280;36875;49.468;11.200;2022-09-16T10:59:15;97285.03;;;19.15;56.17
50057;BME280;36875;49.468;11.200;2022-09-16T11:01:43;97286.16;;;19.14;56.18
50057;BME280;36875;49.468;11.200;2022-09-16T11:04:43;97280.41;;;19.15;56.01
50057;BME280;36875;49.468;11.200;2022-09-16T11:07:22;97271.53;;;19.10;56.41
50057;BME280;36875;49.468;11.200;2022-09-16T11:09:58;97277.31;;;19.17;56.31
50057;BME280;36875;49.468;11.200;2022-09-16T11:12:57;97271.06;;;19.16;56.91
50057;BME280;36875;49.468;11.200;2022-09-16T11:15:34;97269.97;;;19.17;57.17
50057;BME280;36875;49.468;11.200;2022-09-16T11:18:13;97253.91;;;19.07;57.31
50057;BME280;36875;49.468;11.200;2022-09-16T11:20:53;97271.56;;;19.18;57.40
50057;BME280;36875;49.468;11.200;2022-09-16T11:23:38;97280.88;;;19.17;57.26
50057;BME280;36875;49.468;11.200;2022-09-16T11:26:12;97282.47;;;19.18;57.43
50057;BME280;36875;49.468;11.200;2022-09-16T11:28:56;97260.63;;;19.10;57.48
50057;BME280;36875;49.468;11.200;2022-09-16T11:31:35;97272.38;;;19.19;57.57
50057;BME280;36875;49.468;11.200;2022-09-16T11:34:11;97276.69;;;19.20;57.88
50057;BME280;36875;49.468;11.200;2022-09-16T11:36:45;97277.50;;;19.20;57.90
50057;BME280;36875;49.468;11.200;2022-09-16T11:39:25;97270.13;;;19.21;57.72
50057;BME280;36875;49.468;11.200;2022-09-16T11:42:00;97269.00;;;19.22;57.91
50057;BME280;36875;49.468;11.200;2022-09-16T11:44:40;97281.03;;;19.21;57.91
50057;BME280;36875;49.468;11.200;2022-09-16T11:47:20;97272.38;;;19.19;57.95
50057;BME280;36875;49.468;11.200;2022-09-16T11:52:59;97279.09;;;19.21;58.06
50057;BME280;36875;49.468;11.200;2022-09-16T11:55:39;97268.50;;;19.20;58.49
50057;BME280;36875;49.468;11.200;2022-09-16T11:58:12;97272.84;;;19.21;58.63
50057;BME280;36875;49.468;11.200;2022-09-16T12:00:40;97275.91;;;19.19;58.39
50057;BME280;36875;49.468;11.200;2022-09-16T12:03:10;97271.25;;;19.20;58.43
50057;BME280;36875;49.468;11.200;2022-09-16T12:05:41;97273.97;;;19.20;58.64
50057;BME280;36875;49.468;11.200;2022-09-16T12:08:14;97271.25;;;19.20;58.74
50057;BME280;36875;49.468;11.200;2022-09-16T12:10:51;97262.75;;;19.21;58.49
50057;BME280;36875;49.468;11.200;2022-09-16T12:13:22;97263.38;;;19.18;58.36
50057;BME280;36875;49.468;11.200;2022-09-16T12:15:51;97264.69;;;19.21;58.78
50057;BME280;36875;49.468;11.200;2022-09-16T12:18:20;97261.47;;;19.19;58.88
50057;BME280;36875;49.468;11.200;2022-09-16T12:20:49;97250.56;;;19.19;58.60
50057;BME280;36875;49.468;11.200;2022-09-16T12:23:18;97231.94;;;19.03;58.37
50057;BME280;36875;49.468;11.200;2022-09-16T12:25:51;97243.47;;;19.18;58.33
50057;BME280;36875;49.468;11.200;2022-09-16T12:28:25;97250.88;;;19.17;57.98
50057;BME280;36875;49.468;11.200;2022-09-16T12:31:02;97240.75;;;19.18;57.82
50057;BME280;36875;49.468;11.200;2022-09-16T12:33:33;97238.81;;;19.18;57.42
50057;BME280;36875;49.468;11.200;2022-09-16T12:36:04;97233.69;;;19.17;56.78
50057;BME280;36875;49.468;11.200;2022-09-16T12:38:31;97237.56;;;19.16;57.08
50057;BME280;36875;49.468;11.200;2022-09-16T12:41:11;97204.19;;;18.93;56.96
50057;BME280;36875;49.468;11.200;2022-09-16T12:43:58;97234.34;;;19.14;56.74
50057;BME280;36875;49.468;11.200;2022-09-16T12:46:54;97230.31;;;19.11;56.97
50057;BME280;36875;49.468;11.200;2022-09-16T12:52:56;97223.13;;;19.06;56.31
50057;BME280;36875;49.468;11.200;2022-09-16T12:55:37;97239.16;;;19.08;56.38
50057;BME280;36875;49.468;11.200;2022-09-16T12:58:20;97237.56;;;19.07;56.41
50057;BME280;36875;49.468;11.200;2022-09-16T13:00:54;97238.81;;;19.10;55.73
50057;BME280;36875;49.468;11.200;2022-09-16T13:03:25;97198.72;;;18.93;55.81
50057;BME280;36875;49.468;11.200;2022-09-16T13:05:53;97226.81;;;19.11;55.96
50057;BME280;36875;49.468;11.200;2022-09-16T13:08:24;97221.97;;;19.07;55.81
50057;BME280;36875;49.468;11.200;2022-09-16T13:10:56;97206.75;;;19.06;56.41
50057;BME280;36875;49.468;11.200;2022-09-16T13:13:29;97209.16;;;19.08;56.06
50057;BME280;36875;49.468;11.200;2022-09-16T13:15:58;97212.84;;;19.12;55.96
50057;BME280;36875;49.468;11.200;2022-09-16T13:18:36;97217.50;;;19.12;56.26